Altair — 9LC2000 — position and weather

sailwx.info

Track history (hours):
 
Tides and Currents Weather Stations Pressure Air Temp Water Temp Dewpoint Dewpoint Depression Visibility Wind Speed Wind Dir Waves Ship Positions

Altair

Last reported at 2017-Apr-18 10:24 UTC. Time now 2017-Apr-28 15:56 UTC.
Position N 45°34' E 036°52'.
Warning: this ship's position is 10 days out of date.

Length 108 m; draft 2.8 m.

Type: Cargo ship. MMSI: 667021000.

Date/timePositionNaut miles runAvg speedWind from/ knotsBaromVisibWave heightAir tempDewpointWater temp
2017-Apr-18 10:24N 45°34' E 036°52'4 8.5
2017-Apr-18 09:58N 45°32' E 036°48'4 8.2
2017-Apr-18 09:30N 45°29' E 036°44'4 8.1
2017-Apr-18 09:00N 45°25' E 036°43'4 7.7
2017-Apr-18 08:30N 45°22' E 036°40'3 6.6
2017-Apr-18 08:00N 45°20' E 036°36'3 6.9
2017-Apr-18 07:30N 45°19' E 036°31'3 6.2
2017-Apr-18 07:00N 45°16' E 036°29'2 4.8
2017-Apr-18 06:30N 45°14' E 036°29'3 5.3
2017-Apr-18 06:00N 45°11' E 036°30'0 0.0
2017-Apr-18 04:15N 45°11' E 036°30'0 0.0
2017-Apr-18 03:54N 45°11' E 036°30'0 0.0
2017-Apr-18 03:30N 45°11' E 036°30'0 0.1
2017-Apr-18 02:03N 45°11' E 036°30'  
2017-Apr-13 00:37N 40°25' E 029°05'0 0.0
2017-Apr-12 22:37N 40°25' E 029°05'0 0.0
2017-Apr-12 21:18N 40°25' E 029°05'0 0.0
2017-Apr-12 18:01N 40°25' E 029°05'0 0.0
2017-Apr-12 16:43N 40°25' E 029°05'0 0.0
2017-Apr-12 04:31N 40°25' E 029°05'0 0.0
2017-Apr-12 03:06N 40°25' E 029°05'0 0.0
2017-Apr-12 03:01N 40°25' E 029°05'0 0.0
2017-Apr-12 02:31N 40°25' E 029°05'0 0.0
2017-Apr-11 21:37N 40°25' E 029°05'0 0.0
2017-Apr-11 16:24N 40°25' E 029°05'0 0.0
2017-Apr-11 15:48N 40°25' E 029°05'0 0.0
2017-Apr-11 15:29N 40°25' E 029°05'1 0.9
2017-Apr-11 14:55N 40°25' E 029°05'  
Track history (hours):
 
Tides and Currents Weather Stations Pressure Air Temp Water Temp Dewpoint Dewpoint Depression Visibility Wind Speed Wind Dir Waves Ship Positions

Altair

Last reported at 2017-Apr-18 10:24 UTC. Time now 2017-Apr-28 15:56 UTC.
Position N 45°34' E 036°52'.
Warning: this ship's position is 10 days out of date.

Length 108 m; draft 2.8 m.

Type: Cargo ship. MMSI: 667021000.

Date/timePositionNaut miles runAvg speedWind from/ knotsBaromVisibWave heightAir tempDewpointWater temp
2017-Apr-18 10:24N 45°34' E 036°52'4 8.5
2017-Apr-18 09:58N 45°32' E 036°48'4 8.2
2017-Apr-18 09:30N 45°29' E 036°44'4 8.1
2017-Apr-18 09:00N 45°25' E 036°43'4 7.7
2017-Apr-18 08:30N 45°22' E 036°40'3 6.6
2017-Apr-18 08:00N 45°20' E 036°36'3 6.9
2017-Apr-18 07:30N 45°19' E 036°31'3 6.2
2017-Apr-18 07:00N 45°16' E 036°29'2 4.8
2017-Apr-18 06:30N 45°14' E 036°29'3 5.3
2017-Apr-18 06:00N 45°11' E 036°30'0 0.0
2017-Apr-18 04:15N 45°11' E 036°30'0 0.0
2017-Apr-18 03:54N 45°11' E 036°30'0 0.0
2017-Apr-18 03:30N 45°11' E 036°30'0 0.1
2017-Apr-18 02:03N 45°11' E 036°30'  
2017-Apr-13 00:37N 40°25' E 029°05'0 0.0
2017-Apr-12 22:37N 40°25' E 029°05'0 0.0
2017-Apr-12 21:18N 40°25' E 029°05'0 0.0
2017-Apr-12 18:01N 40°25' E 029°05'0 0.0
2017-Apr-12 16:43N 40°25' E 029°05'0 0.0
2017-Apr-12 04:31N 40°25' E 029°05'0 0.0
2017-Apr-12 03:06N 40°25' E 029°05'0 0.0
2017-Apr-12 03:01N 40°25' E 029°05'0 0.0
2017-Apr-12 02:31N 40°25' E 029°05'0 0.0
2017-Apr-11 21:37N 40°25' E 029°05'0 0.0
2017-Apr-11 16:24N 40°25' E 029°05'0 0.0
2017-Apr-11 15:48N 40°25' E 029°05'0 0.0
2017-Apr-11 15:29N 40°25' E 029°05'1 0.9
2017-Apr-11 14:55N 40°25' E 029°05'  

Dump ship's entire track history